createdAt,value
2019-02-19T00:01:23.154Z,17.87
2019-02-19T00:04:04.102Z,16.53
2019-02-19T00:06:45.071Z,15.10
2019-02-19T00:09:25.817Z,15.83
2019-02-19T00:11:54.304Z,15.30
2019-02-19T00:14:42.102Z,16.20
2019-02-19T00:17:22.541Z,14.00
2019-02-19T00:20:03.511Z,14.10
2019-02-19T00:22:44.226Z,14.50
2019-02-19T00:25:24.972Z,14.30
2019-02-19T00:28:05.672Z,14.57
2019-02-19T00:30:46.369Z,14.10
2019-02-19T00:33:27.295Z,13.70
2019-02-19T00:36:08.149Z,13.17
2019-02-19T00:38:47.028Z,13.90
2019-02-19T00:41:34.884Z,13.40
2019-02-19T00:44:15.234Z,14.87
2019-02-19T00:46:55.931Z,13.33
2019-02-19T00:49:36.452Z,14.60
2019-02-19T00:52:17.052Z,15.23
2019-02-19T00:54:57.957Z,15.97
2019-02-19T00:57:38.428Z,15.60
2019-02-19T01:00:18.951Z,16.73
2019-02-19T01:02:59.627Z,16.20
2019-02-19T01:05:39.987Z,16.27
2019-02-19T01:08:20.955Z,17.43
2019-02-19T01:11:02.210Z,17.33
2019-02-19T01:13:43.045Z,17.80
2019-02-19T01:16:11.540Z,17.30
2019-02-19T01:18:59.425Z,18.83
2019-02-19T01:21:39.854Z,16.47
2019-02-19T01:24:08.324Z,16.70
2019-02-19T01:26:56.206Z,18.03
2019-02-19T01:29:43.997Z,16.90
2019-02-19T01:32:24.429Z,17.53
2019-02-19T01:35:05.188Z,17.47
2019-02-19T01:37:45.906Z,16.47
2019-02-19T01:40:27.080Z,16.40
2019-02-19T01:43:07.493Z,16.40
2019-02-19T01:45:36.049Z,16.13
2019-02-19T01:48:23.975Z,16.67
2019-02-19T01:51:11.843Z,17.00
2019-02-19T01:53:52.278Z,16.33
2019-02-19T01:56:33.133Z,16.67
2019-02-19T01:59:14.121Z,15.50
2019-02-19T02:01:54.900Z,15.10
2019-02-19T02:04:35.717Z,14.27
2019-02-19T02:07:16.377Z,15.30
2019-02-19T02:09:56.888Z,16.70
2019-02-19T02:12:37.460Z,16.23
2019-02-19T02:15:17.814Z,15.10
2019-02-19T02:24:01.988Z,13.63
2019-02-19T02:26:43.054Z,13.57
2019-02-19T02:29:23.949Z,14.70
2019-02-19T02:31:52.474Z,13.53
2019-02-19T02:34:40.290Z,13.40
2019-02-19T02:37:28.101Z,12.43
2019-02-19T02:40:09.241Z,13.50
2019-02-19T02:42:49.815Z,12.60
2019-02-19T02:45:30.393Z,12.87
2019-02-19T02:48:11.344Z,12.87
2019-02-19T02:50:51.952Z,12.20
2019-02-19T02:53:32.575Z,13.20
2019-02-19T02:56:13.531Z,13.30
2019-02-19T02:58:54.640Z,13.03
2019-02-19T03:01:36.066Z,13.67
2019-02-19T03:04:17.018Z,13.10
2019-02-19T03:07:02.398Z,13.97
2019-02-19T03:09:43.790Z,12.33
2019-02-19T03:12:25.110Z,13.40
2019-02-19T03:14:54.041Z,13.83
2019-02-19T03:17:42.212Z,13.30
2019-02-19T03:20:22.756Z,13.53
2019-02-19T03:23:03.736Z,13.97
2019-02-19T03:25:44.542Z,13.07
2019-02-19T03:28:26.014Z,13.77
2019-02-19T03:31:07.333Z,12.90
2019-02-19T03:33:35.849Z,13.80
2019-02-19T03:36:23.707Z,13.07
2019-02-19T03:39:04.856Z,12.67
2019-02-19T03:41:45.406Z,13.13
2019-02-19T03:44:26.133Z,12.87
2019-02-19T03:47:06.838Z,12.63
2019-02-19T03:49:47.808Z,13.03
2019-02-19T03:52:28.299Z,13.40
2019-02-19T03:55:08.733Z,12.63
2019-02-19T03:57:37.283Z,14.30
2019-02-19T04:00:25.131Z,14.47
2019-02-19T04:03:06.266Z,13.30
2019-02-19T04:05:47.693Z,13.97
2019-02-19T04:08:28.757Z,13.63
2019-02-19T04:11:09.758Z,12.90
2019-02-19T04:13:50.299Z,13.63
2019-02-19T04:16:30.913Z,13.57
2019-02-19T04:19:11.540Z,13.97
2019-02-19T04:21:52.324Z,12.90
2019-02-19T04:24:33.186Z,12.63
2019-02-19T04:27:14.191Z,12.80
2019-02-19T04:29:55.105Z,12.97
2019-02-19T04:32:36.058Z,12.40
2019-02-19T04:35:16.686Z,12.20
2019-02-19T04:37:57.506Z,11.17
2019-02-19T04:40:38.596Z,11.00
2019-02-19T04:43:19.226Z,11.90
2019-02-19T04:45:59.697Z,11.60
2019-02-19T04:48:40.607Z,11.20
2019-02-19T04:51:21.365Z,10.70
2019-02-19T04:54:02.014Z,10.87
2019-02-19T04:56:42.675Z,10.60
2019-02-19T04:59:23.526Z,10.97
2019-02-19T05:02:04.223Z,10.40
2019-02-19T05:04:45.011Z,10.43
2019-02-19T05:07:13.494Z,9.20
2019-02-19T05:10:01.582Z,9.93
2019-02-19T05:12:49.448Z,9.47
2019-02-19T05:15:29.967Z,9.73
2019-02-19T05:18:10.956Z,9.23
2019-02-19T05:20:51.612Z,8.20
2019-02-19T05:23:32.377Z,8.53
2019-02-19T05:26:13.360Z,9.03
2019-02-19T05:28:54.232Z,8.53
2019-02-19T05:31:35.212Z,9.90
2019-02-19T05:34:16.042Z,8.97
2019-02-19T05:36:56.977Z,9.00
2019-02-19T05:39:38.709Z,8.87
2019-02-19T05:42:19.437Z,9.43
2019-02-19T05:45:00.420Z,8.80
2019-02-19T05:47:41.027Z,7.90
2019-02-19T05:50:21.576Z,9.20
2019-02-19T05:53:02.312Z,9.00
2019-02-19T05:55:42.841Z,8.27
2019-02-19T05:58:23.728Z,8.10
2019-02-19T06:01:04.354Z,9.07
2019-02-19T06:03:45.220Z,9.13
2019-02-19T06:06:25.810Z,9.53
2019-02-19T06:09:06.682Z,10.17
2019-02-19T06:11:47.663Z,9.50
2019-02-19T06:14:28.457Z,9.53
2019-02-19T06:17:09.069Z,10.13
2019-02-19T06:19:50.008Z,9.13
2019-02-19T06:22:31.057Z,9.23
2019-02-19T06:25:11.558Z,8.60
2019-02-19T06:27:52.547Z,9.10
2019-02-19T06:30:21.087Z,9.20
2019-02-19T06:33:08.890Z,8.43
2019-02-19T06:35:56.712Z,9.17
2019-02-19T06:38:37.153Z,8.27
2019-02-19T06:41:17.587Z,8.90
2019-02-19T06:49:56.986Z,8.07
2019-02-19T06:52:38.087Z,9.17
2019-02-19T06:55:18.741Z,9.20
2019-02-19T06:57:59.142Z,7.53
2019-02-19T07:00:40.069Z,8.13
2019-02-19T07:06:17.715Z,8.40
2019-02-19T07:08:46.246Z,8.57
2019-02-19T07:11:14.727Z,9.00
2019-02-19T07:14:02.533Z,9.00
2019-02-19T07:16:43.250Z,9.20
2019-02-19T07:19:24.171Z,9.40
2019-02-19T07:22:04.804Z,8.57
2019-02-19T07:24:45.490Z,9.73
2019-02-19T07:27:26.170Z,11.75
2019-02-19T07:30:07.204Z,10.50
2019-02-19T07:32:48.020Z,10.13
2019-02-19T07:35:28.757Z,10.57
2019-02-19T07:38:09.773Z,9.83
2019-02-19T07:40:50.306Z,10.53
2019-02-19T07:43:31.321Z,11.03
2019-02-19T07:46:12.226Z,11.90
2019-02-19T07:48:52.929Z,11.23
2019-02-19T07:51:33.580Z,12.73
2019-02-19T07:54:14.086Z,12.63
2019-02-19T07:56:55.042Z,14.00
2019-02-19T07:59:36.028Z,13.80
2019-02-19T08:02:16.547Z,15.27
2019-02-19T08:04:57.607Z,14.93
2019-02-19T08:07:38.124Z,15.23
2019-02-19T08:10:18.946Z,15.87
2019-02-19T08:12:59.788Z,16.33
2019-02-19T08:15:40.802Z,17.80
2019-02-19T08:18:21.517Z,18.57
2019-02-19T08:21:02.228Z,18.80
2019-02-19T08:23:42.968Z,18.83
2019-02-19T08:26:23.663Z,18.83
2019-02-19T08:32:16.359Z,17.87
2019-02-19T08:34:57.310Z,19.40
2019-02-19T08:37:37.907Z,20.17
2019-02-19T08:40:19.073Z,19.10
2019-02-19T08:42:59.877Z,16.67
2019-02-19T08:45:40.364Z,16.67
2019-02-19T08:48:20.896Z,17.20
2019-02-19T08:51:01.841Z,17.90
2019-02-19T08:53:42.621Z,17.80
2019-02-19T08:56:23.359Z,16.90
2019-02-19T08:59:03.911Z,15.97
2019-02-19T09:01:32.467Z,14.90
2019-02-19T09:04:20.376Z,13.97
2019-02-19T09:07:01.521Z,12.73
2019-02-19T09:09:42.254Z,12.97
2019-02-19T09:12:22.703Z,10.67
2019-02-19T09:15:03.470Z,11.80
2019-02-19T09:17:51.670Z,11.67
2019-02-19T09:20:27.079Z,10.77
2019-02-19T09:23:07.504Z,11.60
2019-02-19T09:25:48.019Z,10.30
2019-02-19T09:28:28.633Z,9.87
2019-02-19T09:31:09.070Z,10.13
2019-02-19T09:33:49.630Z,9.93
2019-02-19T09:36:30.336Z,10.47
2019-02-19T09:39:10.957Z,8.73
2019-02-19T09:41:51.543Z,10.10
2019-02-19T09:44:32.088Z,9.40
2019-02-19T09:47:12.525Z,8.67
2019-02-19T09:49:53.657Z,8.83
2019-02-19T09:52:34.541Z,8.77
2019-02-19T09:55:15.157Z,7.60
2019-02-19T09:57:55.947Z,8.70
2019-02-19T10:00:36.779Z,8.37
2019-02-19T10:03:17.541Z,8.77
2019-02-19T10:05:58.440Z,9.07
2019-02-19T10:08:39.337Z,8.27
2019-02-19T10:11:20.279Z,8.00
2019-02-19T10:14:01.073Z,8.43
2019-02-19T10:16:42.213Z,9.37
2019-02-19T10:19:10.780Z,9.17
2019-02-19T10:21:58.593Z,8.30
2019-02-19T10:24:46.413Z,8.10
2019-02-19T10:27:34.225Z,7.37
2019-02-19T10:30:02.712Z,6.73
2019-02-19T10:32:50.492Z,7.17
2019-02-19T10:35:30.947Z,6.10
2019-02-19T10:38:12.003Z,6.40
2019-02-19T10:40:52.793Z,6.27
2019-02-19T10:43:33.413Z,5.97
2019-02-19T10:46:14.268Z,5.70
2019-02-19T10:48:54.991Z,5.70
2019-02-19T10:51:35.965Z,5.73
2019-02-19T10:54:16.819Z,5.03
2019-02-19T10:56:57.562Z,4.90
2019-02-19T10:59:38.337Z,5.50
2019-02-19T11:02:19.164Z,5.40
2019-02-19T11:05:00.154Z,5.50
2019-02-19T11:07:29.005Z,4.73
2019-02-19T11:09:57.460Z,4.33
2019-02-19T11:12:45.291Z,4.40
2019-02-19T11:18:28.886Z,3.80
2019-02-19T11:21:18.971Z,5.30
2019-02-19T11:23:53.281Z,4.27
2019-02-19T11:26:33.953Z,4.73
2019-02-19T11:29:14.482Z,3.90
2019-02-19T11:31:42.957Z,3.90
2019-02-19T11:34:30.820Z,4.20
2019-02-19T11:37:11.939Z,3.80
2019-02-19T11:39:52.786Z,3.90
2019-02-19T11:42:33.474Z,4.10
2019-02-19T11:45:14.469Z,3.93
2019-02-19T11:47:55.570Z,3.60
2019-02-19T11:50:36.248Z,3.20
2019-02-19T11:53:17.405Z,3.33
2019-02-19T11:55:58.084Z,3.30
2019-02-19T11:58:39.048Z,3.00
2019-02-19T12:01:19.754Z,4.00
2019-02-19T12:04:00.294Z,3.13
2019-02-19T12:06:40.658Z,3.20
2019-02-19T12:09:09.361Z,3.33
2019-02-19T12:11:57.193Z,4.00
2019-02-19T12:14:38.302Z,4.33
2019-02-19T12:17:18.872Z,3.17
2019-02-19T12:19:59.602Z,3.20
2019-02-19T12:22:40.421Z,2.53
2019-02-19T12:25:21.306Z,5.87
2019-02-19T12:28:02.168Z,3.17
2019-02-19T12:30:43.210Z,3.67
2019-02-19T12:33:23.548Z,3.23
2019-02-19T12:36:04.422Z,3.40
2019-02-19T12:38:45.224Z,3.30
2019-02-19T12:41:25.622Z,2.77
2019-02-19T12:44:05.967Z,3.57
2019-02-19T12:46:46.855Z,3.37
2019-02-19T12:49:27.517Z,3.67
2019-02-19T12:52:07.894Z,3.87
2019-02-19T12:54:48.531Z,4.20
2019-02-19T12:57:29.310Z,3.63
2019-02-19T13:00:10.214Z,4.00
2019-02-19T13:02:38.677Z,3.50
2019-02-19T13:05:47.236Z,3.87
2019-02-19T13:08:35.046Z,3.93
2019-02-19T13:11:16.050Z,4.30
2019-02-19T13:13:57.417Z,4.00
2019-02-19T13:16:38.427Z,3.87
2019-02-19T13:19:19.239Z,3.63
2019-02-19T13:21:59.673Z,4.27
2019-02-19T13:24:40.080Z,4.20
2019-02-19T13:27:20.544Z,4.97
2019-02-19T13:30:01.257Z,5.70
2019-02-19T13:32:41.978Z,5.00
2019-02-19T13:35:22.358Z,4.30
2019-02-19T13:38:03.036Z,4.33
2019-02-19T13:40:43.503Z,4.13
2019-02-19T13:43:24.361Z,3.27
2019-02-19T13:46:04.802Z,2.83
2019-02-19T13:48:45.434Z,2.20
2019-02-19T13:51:25.981Z,2.50
2019-02-19T13:54:08.055Z,3.17
2019-02-19T13:56:48.865Z,3.83
2019-02-19T13:59:29.646Z,2.90
2019-02-19T14:02:10.414Z,2.57
2019-02-19T14:04:51.417Z,2.13
2019-02-19T14:07:31.736Z,2.43
2019-02-19T14:10:12.758Z,2.33
2019-02-19T14:12:53.500Z,2.83
2019-02-19T14:15:41.243Z,2.70
2019-02-19T14:21:12.543Z,2.23
2019-02-19T14:24:00.184Z,2.30
2019-02-19T14:27:07.187Z,3.03
2019-02-19T14:29:52.817Z,1.93
2019-02-19T14:32:53.894Z,2.47
2019-02-19T14:35:36.428Z,2.30
2019-02-19T14:38:21.830Z,2.17
2019-02-19T14:41:21.427Z,2.40
2019-02-19T14:44:21.665Z,2.13
2019-02-19T14:47:04.292Z,2.27
2019-02-19T14:50:04.573Z,1.83
2019-02-19T14:53:04.674Z,2.30
2019-02-19T14:56:04.319Z,2.27
2019-02-19T15:07:47.409Z,1.50
2019-02-19T15:13:42.092Z,2.00
2019-02-19T15:16:49.161Z,3.03
2019-02-19T15:19:38.857Z,3.27
2019-02-19T15:25:40.307Z,2.30
2019-02-19T15:28:40.727Z,3.10
2019-02-19T15:31:23.492Z,2.33
2019-02-19T15:34:23.520Z,2.70
2019-02-19T15:37:23.061Z,2.83
2019-02-19T15:40:23.390Z,2.57
2019-02-19T15:43:11.041Z,2.90
2019-02-19T15:46:18.061Z,2.53
2019-02-19T15:49:25.079Z,2.87
2019-02-19T15:52:32.090Z,2.40
2019-02-19T15:55:14.904Z,2.57
2019-02-19T16:03:46.665Z,3.07
2019-02-19T16:06:46.985Z,2.43
2019-02-19T16:09:29.762Z,2.73
2019-02-19T16:12:12.437Z,2.20
2019-02-19T16:15:12.597Z,3.13
2019-02-19T16:18:12.116Z,2.13
2019-02-19T16:20:52.528Z,3.23
2019-02-19T16:23:59.290Z,2.40
2019-02-19T16:26:46.956Z,2.70
2019-02-19T16:32:55.533Z,2.40
2019-02-19T16:44:08.241Z,1.93
2019-02-19T16:47:08.164Z,2.67
2019-02-19T16:50:08.336Z,2.37
2019-02-19T16:52:50.547Z,2.50
2019-02-19T16:55:50.408Z,2.33
2019-02-19T16:58:35.409Z,1.90
2019-02-19T17:01:18.005Z,2.30
2019-02-19T17:04:18.463Z,2.30
2019-02-19T17:07:18.645Z,2.50
2019-02-19T17:10:18.251Z,2.13
2019-02-19T17:16:24.021Z,2.30
2019-02-19T17:19:11.650Z,1.40
2019-02-19T17:22:11.999Z,2.07
2019-02-19T17:25:12.335Z,2.67
2019-02-19T17:27:57.379Z,2.13
2019-02-19T17:30:40.052Z,2.00
2019-02-19T17:36:16.151Z,1.97
2019-02-19T17:39:03.846Z,1.53
2019-02-19T17:44:47.120Z,2.10
2019-02-19T17:47:29.548Z,1.57
2019-02-19T17:50:11.436Z,2.00
2019-02-19T17:53:11.561Z,1.73
2019-02-19T17:55:53.408Z,2.10
2019-02-19T17:58:53.813Z,2.17
2019-02-19T18:04:33.434Z,2.20
2019-02-19T18:07:18.042Z,2.10
2019-02-19T18:10:17.821Z,1.77
2019-02-19T18:13:02.474Z,1.80
2019-02-19T18:16:02.126Z,1.60
2019-02-19T18:18:44.554Z,1.93
2019-02-19T18:21:25.590Z,2.07
2019-02-19T18:24:06.270Z,2.17
2019-02-19T18:26:34.743Z,1.83
2019-02-19T18:29:22.614Z,2.07
2019-02-19T18:32:10.486Z,2.10
2019-02-19T18:34:50.960Z,2.07
2019-02-19T18:37:31.974Z,1.97
2019-02-19T18:40:12.998Z,2.67
2019-02-19T18:42:53.838Z,2.47
2019-02-19T18:45:22.312Z,2.90
2019-02-19T18:48:10.140Z,1.93
2019-02-19T18:50:58.564Z,2.03
2019-02-19T18:53:40.920Z,1.87
2019-02-19T18:56:09.463Z,2.00
2019-02-19T18:58:59.126Z,2.34
2019-02-19T19:01:17.491Z,2.57
2019-02-19T19:04:05.309Z,2.23
2019-02-19T19:06:46.159Z,2.27
2019-02-19T19:09:26.748Z,2.70
2019-02-19T19:12:07.552Z,2.07
2019-02-19T19:14:48.492Z,2.73
2019-02-19T19:17:29.413Z,2.33
2019-02-19T19:20:11.877Z,2.50
2019-02-19T19:22:52.873Z,2.80
2019-02-19T19:25:33.640Z,2.17
2019-02-19T19:28:14.326Z,2.27
2019-02-19T19:30:55.422Z,2.73
2019-02-19T19:33:25.483Z,2.47
2019-02-19T19:35:55.703Z,2.70
2019-02-19T19:38:57.746Z,3.33
2019-02-19T19:41:33.036Z,2.27
2019-02-19T19:44:13.921Z,2.73
2019-02-19T19:46:42.366Z,3.13
2019-02-19T19:49:10.835Z,2.47
2019-02-19T19:51:39.286Z,2.60
2019-02-19T19:54:27.096Z,2.50
2019-02-19T19:57:14.924Z,2.67
2019-02-19T19:59:43.392Z,3.30
2019-02-19T20:02:51.936Z,2.40
2019-02-19T20:05:39.732Z,2.80
2019-02-19T20:08:20.395Z,2.43
2019-02-19T20:11:01.265Z,2.90
2019-02-19T20:13:41.841Z,2.70
2019-02-19T20:16:22.421Z,2.70
2019-02-19T20:19:03.268Z,2.53
2019-02-19T20:21:44.079Z,2.67
2019-02-19T20:24:12.620Z,2.07
2019-02-19T20:27:00.450Z,2.50
2019-02-19T20:29:28.895Z,3.20
2019-02-19T20:32:04.433Z,2.73
2019-02-19T20:34:32.894Z,2.43
2019-02-19T20:37:22.219Z,3.70
2019-02-19T20:40:03.570Z,3.57
2019-02-19T20:42:32.058Z,2.87
2019-02-19T20:45:19.924Z,3.07
2019-02-19T20:48:00.852Z,3.47
2019-02-19T20:50:41.701Z,3.33
2019-02-19T20:53:10.195Z,3.60
2019-02-19T20:55:58.059Z,3.17
2019-02-19T20:58:39.326Z,3.07
2019-02-19T21:01:20.082Z,3.00
2019-02-19T21:04:00.903Z,3.20
2019-02-19T21:06:29.374Z,3.50
2019-02-19T21:09:17.226Z,2.97
2019-02-19T21:12:05.009Z,3.20
2019-02-19T21:14:45.616Z,3.13
2019-02-19T21:17:14.132Z,3.50
2019-02-19T21:20:01.945Z,2.67
2019-02-19T21:22:49.797Z,3.17
2019-02-19T21:25:18.281Z,3.27
2019-02-19T21:28:06.078Z,3.37
2019-02-19T21:30:46.470Z,2.80
2019-02-19T21:33:27.338Z,2.80
2019-02-19T21:36:08.438Z,2.97
2019-02-19T21:38:49.149Z,3.10
2019-02-19T21:41:29.871Z,3.37
2019-02-19T21:43:58.392Z,3.57
2019-02-19T21:46:46.201Z,3.13
2019-02-19T21:49:14.645Z,3.47
2019-02-19T21:51:43.119Z,4.03
2019-02-19T21:54:31.000Z,3.13
2019-02-19T21:57:11.621Z,3.70
2019-02-19T21:59:52.326Z,3.27
2019-02-19T22:02:33.199Z,3.50
2019-02-19T22:05:13.690Z,4.10
2019-02-19T22:07:54.146Z,3.37
2019-02-19T22:10:22.604Z,3.80
2019-02-19T22:15:45.806Z,4.13
2019-02-19T22:18:33.687Z,3.80
2019-02-19T22:21:16.080Z,3.97
2019-02-19T22:23:57.376Z,4.10
2019-02-19T22:26:38.268Z,4.60
2019-02-19T22:29:19.173Z,4.20
2019-02-19T22:32:00.058Z,4.60
2019-02-19T22:34:41.353Z,4.83
2019-02-19T22:37:21.963Z,4.70
2019-02-19T22:39:50.479Z,5.13
2019-02-19T22:42:38.323Z,4.70
2019-02-19T22:45:26.196Z,5.20
2019-02-19T22:48:07.140Z,4.20
2019-02-19T22:50:47.528Z,4.93
2019-02-19T22:53:47.690Z,4.87
2019-02-19T22:56:30.557Z,5.27
2019-02-19T22:59:11.292Z,4.60
2019-02-19T23:01:53.589Z,4.40
2019-02-19T23:04:34.806Z,4.93
2019-02-19T23:13:31.951Z,5.40
2019-02-19T23:16:12.527Z,5.50
2019-02-19T23:18:53.567Z,4.87
2019-02-19T23:21:34.041Z,5.47
2019-02-19T23:24:14.591Z,5.10
2019-02-19T23:26:55.021Z,5.70
2019-02-19T23:29:35.695Z,5.83
2019-02-19T23:32:19.937Z,5.70
2019-02-19T23:38:03.448Z,5.23
2019-02-19T23:40:44.211Z,5.40
2019-02-19T23:43:24.866Z,5.60
2019-02-19T23:46:05.793Z,5.73
2019-02-19T23:48:46.707Z,6.33
2019-02-19T23:51:27.790Z,5.97
2019-02-19T23:54:08.712Z,6.03
2019-02-19T23:56:49.528Z,6.37
2019-02-19T23:59:30.414Z,5.40
